Time;durP1;ratioP1;P1;durP2;ratioP2;P2;SDS_P1;SDS_P2;PMS_P1;PMS_P2;Temp;Humidity;BMP_temperature;BMP_pressure;BME280_temperature;BME280_humidity;BME280_pressure;Samples;Min_cycle;Max_cycle;Signal;HPM_P1;HPM_P2
2022/08/22 00:00:29;;;;;;;28.95;3.15;;;;;;;17.98;83.87;100289.52;1705730;84;21007;-42
2022/08/22 00:03:14;;;;;;;35.63;3.62;;;;;;;18.00;82.99;100291.11;1705794;83;20964;-42
2022/08/22 00:05:59;;;;;;;100.33;5.20;;;;;;;18.03;82.79;100289.67;1705860;84;20988;-42
2022/08/22 00:08:54;;;;;;;28.42;3.60;;;;;;;18.04;83.23;100291.36;1609917;88;21559;-42
2022/08/22 00:11:30;;;;;;;21.77;2.17;;;;;;;18.02;83.41;100287.15;1705854;84;21279;-43
2022/08/22 00:14:10;;;;;;;30.92;4.42;;;;;;;17.98;83.01;100285.59;1709843;83;21016;-43
2022/08/22 00:16:58;;;;;;;30.62;3.72;;;;;;;17.94;83.22;100290.12;1733225;82;21023;-43
2022/08/22 00:19:34;;;;;;;24.95;3.02;;;;;;;17.90;83.42;100292.05;1726918;82;21007;-43
2022/08/22 00:22:24;;;;;;;42.33;3.47;;;;;;;17.86;83.82;100295.76;1683364;83;20972;-43
2022/08/22 00:25:18;;;;;;;47.80;4.10;;;;;;;17.79;83.74;100291.30;1713587;83;21121;-43
2022/08/22 00:27:55;;;;;;;23.18;3.42;;;;;;;17.75;83.45;100289.77;1713718;83;20949;-43
2022/08/22 00:30:22;;;;;;;26.65;3.70;;;;;;;17.71;83.48;100293.47;1713157;83;21058;-43
2022/08/22 00:32:57;;;;;;;24.92;4.25;;;;;;;17.69;83.71;100295.80;1713573;83;20992;-42
2022/08/22 00:35:43;;;;;;;24.43;4.05;;;;;;;17.65;83.20;100292.48;1721423;82;21511;-42
2022/08/22 00:38:27;;;;;;;30.80;3.85;;;;;;;17.63;83.21;100292.54;1714082;83;21787;-42
2022/08/22 00:41:21;;;;;;;29.65;3.27;;;;;;;17.60;83.00;100291.39;1715578;82;20957;-42
2022/08/22 00:43:53;;;;;;;28.32;3.12;;;;;;;17.60;82.64;100293.17;1713543;83;20991;-42
2022/08/22 00:46:26;;;;;;;33.88;3.27;;;;;;;17.57;82.34;100293.34;1713619;83;21003;-42
2022/08/22 00:49:32;;;;;;;55.05;3.80;;;;;;;17.53;82.54;100294.77;1704724;83;20987;-42
2022/08/22 00:52:27;;;;;;;28.83;3.43;;;;;;;17.49;82.50;100293.23;1719817;82;21283;-41
2022/08/22 00:55:17;;;;;;;23.18;3.47;;;;;;;17.47;82.19;100283.31;1743264;82;20889;-42
2022/08/22 00:57:53;;;;;;;20.45;3.75;;;;;;;17.42;82.25;100284.01;1743369;82;20983;-42
2022/08/22 01:00:23;;;;;;;18.75;2.83;;;;;;;17.40;82.37;100288.92;1743488;82;21517;-42
2022/08/22 01:03:01;;;;;;;30.30;3.70;;;;;;;17.36;82.01;100294.31;1743227;81;21536;-42
2022/08/22 01:06:12;;;;;;;23.27;3.50;;;;;;;17.35;81.44;100291.78;1743249;82;21122;-42
2022/08/22 01:08:53;;;;;;;38.60;4.05;;;;;;;17.36;81.38;100289.56;1743228;81;21466;-41
2022/08/22 01:11:59;;;;;;;40.45;3.92;;;;;;;17.35;81.27;100291.78;1723612;81;21581;-41
2022/08/22 01:14:56;;;;;;;29.12;3.30;;;;;;;17.35;81.13;100293.09;1709045;83;20968;-42
2022/08/22 01:17:52;;;;;;;42.33;3.70;;;;;;;17.33;81.66;100289.71;1705830;84;21039;-41
2022/08/22 01:20:57;;;;;;;32.42;3.75;;;;;;;17.30;80.58;100292.45;1706235;82;21173;-41
2022/08/22 01:24:06;;;;;;;38.33;3.15;;;;;;;17.30;80.70;100293.76;1705784;84;21465;-41
2022/08/22 01:27:00;;;;;;;43.78;4.08;;;;;;;17.27;80.81;100292.61;1705572;82;21246;-42
2022/08/22 01:29:36;;;;;;;35.88;4.30;;;;;;;17.22;80.70;100296.30;1723758;82;20937;-41
2022/08/22 01:32:28;;;;;;;25.32;3.20;;;;;;;17.19;81.04;100295.14;1734908;82;21560;-41
2022/08/22 01:35:27;;;;;;;36.28;3.77;;;;;;;17.18;81.16;100293.45;1735503;82;21234;-41
2022/08/22 01:38:02;;;;;;;31.68;3.30;;;;;;;17.15;81.26;100296.22;1735326;82;20957;-41
2022/08/22 01:40:58;;;;;;;30.48;4.03;;;;;;;17.15;81.64;100292.74;1715953;82;20932;-41
2022/08/22 01:43:48;;;;;;;40.75;3.62;;;;;;;17.11;81.70;100291.20;1705823;82;20952;-41
2022/08/22 01:46:36;;;;;;;23.22;3.60;;;;;;;17.09;82.11;100289.98;1705751;82;20953;-42
2022/08/22 01:49:23;;;;;;;34.92;3.20;;;;;;;17.07;82.45;100291.36;1705972;84;21869;-41
2022/08/22 01:52:35;;;;;;;27.42;3.52;;;;;;;17.06;81.58;100288.36;1705797;84;20981;-41
2022/08/22 01:55:22;;;;;;;43.90;3.92;;;;;;;17.08;80.88;100291.73;1705940;83;20976;-42
2022/08/22 01:57:53;;;;;;;48.15;4.50;;;;;;;17.15;80.05;100297.53;1699238;84;20941;-41
2022/08/22 02:00:20;;;;;;;32.58;3.65;;;;;;;17.18;80.88;100290.00;1685975;84;21351;-41
2022/08/22 02:03:08;;;;;;;45.05;3.83;;;;;;;17.17;80.09;100298.30;1682107;82;21158;-42
2022/08/22 02:05:52;;;;;;;45.15;3.37;;;;;;;17.21;79.09;100288.55;1717466;82;21008;-41
2022/08/22 02:08:45;;;;;;;35.20;4.10;;;;;;;17.27;78.41;100294.77;1730715;82;20894;-42
2022/08/22 02:11:46;;;;;;;34.50;3.80;;;;;;;17.30;78.96;100297.23;1735206;82;20992;-41
2022/08/22 02:14:35;;;;;;;38.75;3.42;;;;;;;17.33;78.22;100299.70;1735327;81;21000;-41
2022/08/22 02:17:34;;;;;;;51.85;4.83;;;;;;;17.36;77.99;100294.31;1735285;82;21233;-41
2022/08/22 02:20:21;;;;;;;45.38;4.85;;;;;;;17.40;77.40;100298.08;1732972;81;20909;-42
2022/08/22 02:23:28;;;;;;;43.45;4.15;;;;;;;17.42;76.87;100298.40;1712975;82;20952;-41
2022/08/22 02:26:03;;;;;;;38.90;4.42;;;;;;;17.43;76.73;100300.09;1686141;84;21562;-42
2022/08/22 02:28:52;;;;;;;41.95;4.25;;;;;;;17.43;76.80;100302.70;1706050;84;20993;-42
2022/08/22 02:31:45;;;;;;;40.73;3.98;;;;;;;17.42;77.16;100311.48;1706174;84;21117;-42
2022/08/22 02:34:35;;;;;;;48.68;4.47;;;;;;;17.41;77.04;100312.41;1705840;84;21020;-42
2022/08/22 02:37:35;;;;;;;48.05;4.72;;;;;;;17.40;76.79;100314.64;1705918;84;20984;-42
2022/08/22 02:40:32;;;;;;;50.15;5.35;;;;;;;17.38;77.20;100316.01;1711718;82;21020;-42
2022/08/22 02:43:17;;;;;;;41.30;4.45;;;;;;;17.37;76.94;100320.02;1734957;82;21016;-42
2022/08/22 02:46:34;;;;;;;41.63;4.05;;;;;;;17.39;77.25;100312.95;1735353;82;21855;-42
2022/08/22 02:49:33;;;;;;;41.00;4.53;;;;;;;17.37;76.98;100311.70;1693033;83;20999;-42
2022/08/22 02:52:11;;;;;;;46.05;3.87;;;;;;;17.39;76.35;100316.87;1692625;83;21042;-42
2022/08/22 02:54:46;;;;;;;43.70;5.42;;;;;;;17.41;75.73;100316.77;1685096;84;21004;-42
2022/08/22 02:57:30;;;;;;;43.98;4.47;;;;;;;17.43;75.48;100319.72;1711755;82;21113;-42
2022/08/22 03:00:14;;;;;;;38.98;4.40;;;;;;;17.46;75.36;100317.42;1650564;85;21141;-42
2022/08/22 03:03:02;;;;;;;51.75;5.20;;;;;;;17.47;75.86;100321.73;1654138;86;20992;-42
2022/08/22 03:05:40;;;;;;;47.35;4.58;;;;;;;17.47;75.41;100323.87;1654704;86;21550;-42
2022/08/22 03:08:19;;;;;;;51.90;4.47;;;;;;;17.49;75.25;100322.02;1668948;85;20912;-43
2022/08/22 03:11:21;;;;;;;53.28;4.62;;;;;;;17.49;75.86;100323.80;1645277;85;20991;-42
2022/08/22 03:14:08;;;;;;;59.30;4.40;;;;;;;17.50;75.26;100329.42;1706057;83;21247;-43
2022/08/22 03:17:09;;;;;;;53.13;4.30;;;;;;;17.52;75.86;100324.48;1724568;82;21504;-42
2022/08/22 03:20:08;;;;;;;61.50;5.62;;;;;;;17.56;74.70;100330.89;1743205;82;21458;-42
2022/08/22 03:22:53;;;;;;;52.15;5.70;;;;;;;17.60;74.57;100330.64;1743339;82;20963;-42
2022/08/22 03:25:46;;;;;;;45.05;5.03;;;;;;;17.64;74.87;100335.28;1742957;82;21470;-42
2022/08/22 03:28:21;;;;;;;59.13;6.37;;;;;;;17.67;74.43;100335.12;1743475;82;21268;-42
2022/08/22 03:30:59;;;;;;;56.18;5.12;;;;;;;17.72;74.02;100339.66;1743356;82;21008;-42
2022/08/22 03:33:30;;;;;;;74.03;4.80;;;;;;;17.79;73.71;100335.80;1740300;82;20929;-42
2022/08/22 03:36:18;;;;;;;59.90;5.08;;;;;;;17.85;72.65;100333.34;1676948;83;21545;-42
2022/08/22 03:39:02;;;;;;;42.17;4.97;;;;;;;17.94;72.72;100337.27;1709072;83;21031;-41
2022/08/22 03:42:07;;;;;;;59.23;6.30;;;;;;;18.00;72.14;100334.32;1730598;82;21197;-42
2022/08/22 03:44:55;;;;;;;64.67;5.97;;;;;;;18.06;71.98;100335.37;1738697;81;20968;-42
2022/08/22 03:47:30;;;;;;;72.05;5.92;;;;;;;18.18;70.08;100348.73;1743359;82;20920;-42
2022/08/22 03:50:36;;;;;;;60.98;6.00;;;;;;;18.28;69.56;100347.31;1707759;84;21055;-42
2022/08/22 03:53:44;;;;;;;62.67;6.28;;;;;;;18.36;69.62;100342.54;1683311;83;21166;-43
2022/08/22 03:56:44;;;;;;;63.02;5.50;;;;;;;18.50;68.70;100355.36;1695253;84;21187;-42
2022/08/22 03:59:31;;;;;;;62.40;5.50;;;;;;;18.60;67.97;100348.71;1695139;83;21047;-42
2022/08/22 04:02:54;;;;;;;60.33;6.50;;;;;;;18.70;67.93;100352.99;1694868;84;20968;-42
2022/08/22 04:05:53;;;;;;;54.60;5.25;;;;;;;18.75;67.04;100351.41;1695216;84;21055;-42
2022/08/22 04:08:47;;;;;;;62.65;5.75;;;;;;;18.82;65.94;100354.10;1665363;84;21067;-42
2022/08/22 04:11:35;;;;;;;64.60;6.20;;;;;;;18.88;66.72;100352.90;1686104;84;22143;-42
2022/08/22 04:14:24;;;;;;;53.83;5.67;;;;;;;18.92;65.54;100347.86;1667358;86;21670;-42
2022/08/22 04:17:19;;;;;;;55.67;5.67;;;;;;;18.96;66.62;100354.66;1667145;86;21012;-42
2022/08/22 04:20:19;;;;;;;75.15;6.58;;;;;;;19.01;66.23;100362.28;1667125;86;20984;-42
2022/08/22 04:23:25;;;;;;;67.00;6.42;;;;;;;19.06;66.29;100360.23;1616632;86;21541;-42
2022/08/22 04:25:56;;;;;;;76.97;6.97;;;;;;;19.11;67.22;100362.16;1667310;86;21141;-42
2022/08/22 04:28:46;;;;;;;60.80;6.78;;;;;;;19.15;66.79;100363.68;1666969;86;20933;-42
2022/08/22 04:31:16;;;;;;;76.33;6.67;;;;;;;19.21;67.25;100362.02;1682890;84;20972;-42
2022/08/22 04:34:02;;;;;;;71.02;6.33;;;;;;;19.27;68.13;100363.45;1660773;85;21035;-42
2022/08/22 04:36:46;;;;;;;67.55;6.25;;;;;;;19.32;67.82;100363.17;1667353;86;20972;-42
2022/08/22 04:39:31;;;;;;;72.40;7.30;;;;;;;19.39;67.76;100364.54;1602507;85;21833;-43
2022/08/22 04:42:13;;;;;;;60.17;6.15;;;;;;;19.50;67.97;100367.38;1713614;83;20928;-43
2022/08/22 04:44:57;;;;;;;75.67;7.00;;;;;;;19.61;66.65;100362.83;1713639;83;21534;-43
2022/08/22 04:47:40;;;;;;;74.20;7.87;;;;;;;19.73;66.92;100359.95;1717461;82;20967;-43
2022/08/22 04:50:25;;;;;;;89.32;6.50;;;;;;;19.89;66.05;100366.45;1713638;83;20991;-43
2022/08/22 04:53:19;;;;;;;64.77;6.80;;;;;;;20.01;65.74;100370.17;1735226;82;21101;-43
2022/08/22 04:56:26;;;;;;;90.45;8.48;;;;;;;20.17;65.11;100364.02;1717904;82;20984;-43
2022/08/22 04:58:57;;;;;;;;;;;;;;;20.33;65.87;100373.12;1716292;83;20971;-43
2022/08/22 05:01:53;;;;;;;77.00;7.62;;;;;;;20.52;63.74;100369.75;1713747;83;20116;-43
2022/08/22 05:04:29;;;;;;;77.92;7.78;;;;;;;20.70;64.17;100374.78;1724612;82;20980;-42
2022/08/22 05:07:16;;;;;;;76.53;7.42;;;;;;;20.93;64.30;100378.64;1743223;81;21053;-42
2022/08/22 05:09:50;;;;;;;82.25;8.38;;;;;;;21.12;63.28;100381.88;1743247;82;20992;-43
2022/08/22 05:12:30;;;;;;;69.03;6.97;;;;;;;21.33;63.33;100392.80;1743401;82;20937;-42
2022/08/22 05:15:03;;;;;;;84.25;9.35;;;;;;;21.52;61.77;100391.98;1732144;82;20980;-42
2022/08/22 05:17:31;;;;;;;77.65;7.50;;;;;;;21.71;61.09;100389.94;1705580;84;20941;-42
2022/08/22 05:20:06;;;;;;;92.57;9.78;;;;;;;21.85;60.77;100388.56;1707955;82;21189;-43
2022/08/22 05:22:38;;;;;;;76.00;8.40;;;;;;;21.93;59.19;100389.37;1714060;81;21537;-43
2022/08/22 05:25:09;;;;;;;82.10;8.65;;;;;;;22.03;59.41;100386.47;1705975;83;20988;-42
2022/08/22 05:30:50;;;;;;;95.03;8.50;;;;;;;22.27;59.11;100383.10;1870438;76;22625;-43
2022/08/22 05:33:27;;;;;;;68.50;8.43;;;;;;;22.24;57.55;100393.86;1826670;77;20880;-42
2022/08/22 05:36:03;;;;;;;81.22;10.35;;;;;;;22.25;58.03;100388.95;1826761;78;21266;-42
2022/08/22 05:38:32;;;;;;;71.85;8.25;;;;;;;22.29;59.48;100394.38;1812510;78;20959;-43
2022/08/22 05:41:09;;;;;;;59.65;9.50;;;;;;;22.32;59.08;100396.80;1826706;78;20912;-42
2022/08/22 05:43:40;;;;;;;75.52;8.08;;;;;;;22.34;57.34;100386.99;1826912;77;20971;-42
2022/08/22 05:46:12;;;;;;;93.95;9.35;;;;;;;22.34;56.88;100394.08;1826846;78;20955;-43
2022/08/22 05:48:43;;;;;;;78.65;9.00;;;;;;;22.36;57.72;100389.53;1823352;78;21074;-43
2022/08/22 05:51:20;;;;;;;97.50;8.85;;;;;;;22.39;57.03;100392.81;1812974;78;20999;-43
2022/08/22 05:53:52;;;;;;;106.30;9.75;;;;;;;22.37;54.59;100388.58;1813602;78;20994;-43
2022/08/22 05:56:36;;;;;;;85.15;9.33;;;;;;;22.36;56.26;100382.48;1785427;79;21011;-43
2022/08/22 05:59:21;;;;;;;76.10;9.05;;;;;;;22.42;56.41;100380.36;1785655;79;20923;-44
2022/08/22 06:02:03;;;;;;;101.75;10.65;;;;;;;22.47;55.11;100383.55;1788938;79;21012;-42
2022/08/22 06:04:35;;;;;;;107.72;10.30;;;;;;;22.49;55.81;100385.14;1800511;79;20936;-42
2022/08/22 06:07:19;;;;;;;83.82;9.20;;;;;;;22.55;55.66;100387.80;1814257;79;20940;-42
2022/08/22 06:10:10;;;;;;;87.03;10.27;;;;;;;22.60;54.91;100394.08;1810158;79;21536;-42
2022/08/22 06:12:54;;;;;;;75.87;9.18;;;;;;;22.67;55.11;100390.91;1800980;78;21508;-42
2022/08/22 06:15:29;;;;;;;82.47;9.60;;;;;;;22.69;54.41;100384.19;1814882;77;21380;-42
2022/08/22 06:18:01;;;;;;;100.62;9.88;;;;;;;22.74;53.98;100384.73;1724624;82;20956;-43
2022/08/22 06:20:57;;;;;;;91.17;9.60;;;;;;;22.81;53.38;100385.97;1746971;80;21042;-43
2022/08/22 06:23:38;;;;;;;107.40;9.20;;;;;;;22.85;53.88;100390.53;1756024;81;20995;-43
2022/08/22 06:26:07;;;;;;;88.27;8.95;;;;;;;22.91;54.87;100392.76;1744519;81;20940;-44
2022/08/22 06:28:39;;;;;;;80.83;9.35;;;;;;;23.00;54.62;100400.95;1748600;81;21271;-44
2022/08/22 06:31:09;;;;;;;92.17;9.63;;;;;;;23.10;54.62;100394.05;1764380;81;20943;-44
2022/08/22 06:33:37;;;;;;;105.22;9.23;;;;;;;23.21;54.98;100398.55;1764491;80;20938;-44
2022/08/22 06:36:30;;;;;;;93.20;8.40;;;;;;;23.24;53.25;100391.26;1765068;81;20994;-44
2022/08/22 06:39:21;;;;;;;83.47;8.70;;;;;;;23.32;52.86;100380.17;1715138;81;20994;-42
2022/08/22 06:41:56;;;;;;;95.12;9.73;;;;;;;23.36;53.49;100396.15;1762366;81;21242;-43
2022/08/22 06:44:28;;;;;;;96.32;11.15;;;;;;;23.47;52.30;100392.72;1762971;81;20955;-43
2022/08/22 06:46:59;;;;;;;84.75;9.20;;;;;;;23.52;52.48;100402.45;1764365;81;20998;-43
2022/08/22 06:49:26;;;;;;;91.22;10.75;;;;;;;23.64;53.28;100400.70;1758458;81;20943;-43
2022/08/22 06:52:04;;;;;;;90.10;7.92;;;;;;;23.70;52.49;100407.80;1757123;81;22875;-43
2022/08/22 06:54:34;;;;;;;87.78;8.80;;;;;;;23.72;51.42;100413.34;1736003;81;21784;-43
2022/08/22 06:57:01;;;;;;;99.25;10.58;;;;;;;23.82;52.17;100416.14;1736179;81;20990;-44
2022/08/22 06:59:29;;;;;;;96.25;8.83;;;;;;;23.92;52.27;100416.30;1735538;81;21538;-43
2022/08/22 07:02:03;;;;;;;98.25;9.68;;;;;;;24.01;51.86;100412.12;1735295;82;21030;-43
2022/08/22 07:04:30;;;;;;;96.92;10.13;;;;;;;24.10;49.67;100416.72;1735474;82;20954;-43
2022/08/22 07:06:58;;;;;;;86.60;9.83;;;;;;;24.08;49.96;100411.53;1735539;82;20951;-43
2022/08/22 07:09:33;;;;;;;91.85;9.23;;;;;;;24.07;49.83;100412.50;1734715;82;20998;-43
2022/08/22 07:12:10;;;;;;;81.78;8.80;;;;;;;24.16;51.20;100408.80;1710803;82;20951;-43
2022/08/22 07:14:48;;;;;;;91.17;9.40;;;;;;;24.28;51.35;100411.81;1734448;82;21061;-43
2022/08/22 07:17:24;;;;;;;75.78;9.65;;;;;;;24.41;51.02;100410.88;1710987;82;21055;-43
2022/08/22 07:20:09;;;;;;;91.85;11.08;;;;;;;24.60;51.26;100403.66;1735592;82;21147;-44
2022/08/22 07:22:36;;;;;;;80.23;9.87;;;;;;;24.71;50.11;100404.13;1720642;81;20975;-44
2022/08/22 07:25:14;;;;;;;97.57;9.20;;;;;;;24.73;48.62;100405.67;1735462;81;20954;-43
2022/08/22 07:28:03;;;;;;;92.40;11.22;;;;;;;24.71;49.01;100405.45;1735401;82;20927;-43
2022/08/22 07:30:56;;;;;;;97.42;9.10;;;;;;;24.82;50.47;100409.43;1729175;82;21480;-42
2022/08/22 07:33:31;;;;;;;91.25;9.98;;;;;;;25.00;50.88;100410.26;1728107;81;21570;-44
2022/08/22 07:36:00;;;;;;;96.08;8.60;;;;;;;25.11;49.01;100407.57;1730813;80;20996;-44
2022/08/22 07:38:42;;;;;;;104.95;10.85;;;;;;;25.22;48.87;100411.53;1709468;82;21013;-44
2022/08/22 07:41:18;;;;;;;77.60;9.63;;;;;;;25.34;50.26;100400.88;1738910;81;20957;-43
2022/08/22 07:43:54;;;;;;;98.10;9.08;;;;;;;25.34;48.71;100403.06;1709336;82;21006;-43
2022/08/22 07:46:37;;;;;;;91.35;9.48;;;;;;;25.29;48.63;100404.40;1738273;82;21472;-43
2022/08/22 07:49:20;;;;;;;94.67;10.30;;;;;;;25.35;48.22;100397.27;1736560;82;20974;-43
2022/08/22 07:51:56;;;;;;;82.27;9.08;;;;;;;25.44;49.02;100397.86;1753350;81;20936;-43
2022/08/22 07:54:40;;;;;;;96.08;8.65;;;;;;;25.56;50.00;100403.98;1736937;81;21472;-44
2022/08/22 07:57:15;;;;;;;115.35;11.08;;;;;;;25.72;48.19;100399.56;1750827;81;20996;-43
2022/08/22 07:59:46;;;;;;;69.80;9.78;;;;;;;25.88;46.90;100387.66;1738143;81;21262;-44
2022/08/22 08:02:14;;;;;;;84.00;9.55;;;;;;;26.00;49.67;100394.58;1764079;80;20989;-44
2022/08/22 08:04:41;;;;;;;110.10;9.90;;;;;;;26.21;50.29;100398.56;1758559;80;20975;-44
2022/08/22 08:07:10;;;;;;;96.63;11.38;;;;;;;26.39;48.99;100392.64;1769920;79;20985;-43
2022/08/22 08:09:44;;;;;;;89.45;8.63;;;;;;;26.51;45.67;100400.02;1749757;80;21522;-44
2022/08/22 08:12:12;;;;;;;95.40;9.95;;;;;;;26.41;45.80;100396.50;1736150;82;21246;-43
2022/08/22 08:14:41;;;;;;;90.92;10.55;;;;;;;26.51;49.11;100404.00;1733185;81;21401;-43
2022/08/22 08:17:16;;;;;;;102.65;10.40;;;;;;;26.71;48.17;100392.96;1745047;81;20987;-43
2022/08/22 08:19:43;;;;;;;76.83;9.40;;;;;;;26.85;45.39;100398.91;1740692;81;20982;-44
2022/08/22 08:22:14;;;;;;;112.95;10.63;;;;;;;26.77;45.74;100403.03;1734817;82;20938;-44
2022/08/22 08:24:41;;;;;;;72.03;9.55;;;;;;;26.70;46.09;100398.42;1757775;79;22338;-43
2022/08/22 08:30:05;;;;;;;109.50;10.95;;;;;;;26.65;44.69;100394.84;1773141;80;21009;-42
2022/08/22 08:32:35;;;;;;;96.37;11.55;;;;;;;26.68;45.95;100400.72;1754983;80;21019;-43
2022/08/22 08:35:19;;;;;;;88.45;11.33;;;;;;;26.88;47.41;100399.45;1783514;80;20979;-43
2022/08/22 08:37:51;;;;;;;76.87;10.28;;;;;;;27.16;48.59;100400.14;1765085;81;21230;-43
2022/08/22 08:40:32;;;;;;;78.65;9.20;;;;;;;27.33;45.94;100392.83;1754694;81;21513;-43
2022/08/22 08:43:33;;;;;;;92.05;11.30;;;;;;;27.42;46.95;100391.63;1757818;80;22375;-43
2022/08/22 08:46:38;;;;;;;80.42;9.08;;;;;;;27.57;44.38;100390.75;1754475;81;20896;-43
2022/08/22 08:49:39;;;;;;;83.97;8.73;;;;;;;27.58;43.99;100395.94;1754758;81;21041;-43
2022/08/22 08:52:48;;;;;;;104.00;9.43;;;;;;;27.42;43.84;100399.60;1783129;79;21340;-44
2022/08/22 08:55:39;;;;;;;102.20;8.75;;;;;;;27.25;43.59;100398.83;1782152;79;20924;-45
2022/08/22 08:58:15;;;;;;;89.00;9.30;;;;;;;27.08;44.47;100404.34;1770100;80;20900;-42
2022/08/22 09:00:59;;;;;;;93.40;9.30;;;;;;;27.18;44.84;100400.38;1776414;80;20982;-42
2022/08/22 09:04:01;;;;;;;93.35;9.98;;;;;;;27.23;44.90;100400.80;1784703;80;21599;-42
2022/08/22 09:07:01;;;;;;;89.75;10.03;;;;;;;27.29;45.64;100399.87;1739294;80;21405;-43
2022/08/22 09:09:46;;;;;;;82.82;9.20;;;;;;;27.49;45.64;100412.20;1783245;80;20970;-44
2022/08/22 09:12:33;;;;;;;88.03;9.83;;;;;;;27.73;43.95;100408.30;1785822;80;21825;-44
2022/08/22 09:15:32;;;;;;;91.75;11.18;;;;;;;27.79;42.97;100409.56;1782999;79;20892;-44
2022/08/22 09:18:42;;;;;;;91.97;9.83;;;;;;;27.72;42.77;100407.95;1754531;81;20963;-44
2022/08/22 09:21:46;;;;;;;94.87;11.40;;;;;;;27.65;43.51;100409.48;1753821;81;21250;-44
2022/08/22 09:24:56;;;;;;;84.58;9.28;;;;;;;27.81;45.68;100415.06;1754256;81;20987;-43
2022/08/22 09:27:42;;;;;;;81.20;10.13;;;;;;;28.09;42.84;100412.48;1754687;81;20947;-43
2022/08/22 09:30:14;;;;;;;95.80;8.25;;;;;;;28.04;43.49;100414.75;1755694;81;20966;-43
2022/08/22 09:32:53;;;;;;;82.27;8.95;;;;;;;28.13;43.37;100406.40;1760885;81;20927;-43
2022/08/22 09:35:51;;;;;;;83.75;9.18;;;;;;;28.22;42.30;100414.04;1760719;81;21399;-43
2022/08/22 09:38:44;;;;;;;87.00;9.28;;;;;;;28.19;42.08;100413.00;1760902;81;21516;-44
2022/08/22 09:41:31;;;;;;;105.70;9.20;;;;;;;27.95;42.21;100418.28;1760814;81;21050;-43
2022/08/22 09:44:11;;;;;;;75.12;8.70;;;;;;;27.90;43.63;100415.19;1743769;81;21037;-43
2022/08/22 09:46:57;;;;;;;92.80;8.93;;;;;;;27.93;44.22;100425.56;1761103;81;20982;-44
2022/08/22 09:49:47;;;;;;;81.32;8.58;;;;;;;27.99;43.01;100424.13;1760919;80;21890;-44
2022/08/22 09:52:48;;;;;;;75.75;9.30;;;;;;;28.05;43.69;100427.06;1760969;81;21033;-43
2022/08/22 09:55:46;;;;;;;87.60;9.23;;;;;;;28.24;45.74;100428.86;1760850;81;20899;-44
2022/08/22 09:58:38;;;;;;;86.20;8.53;;;;;;;28.47;43.98;100431.67;1735107;81;21034;-43
2022/08/22 10:01:47;;;;;;;91.63;8.55;;;;;;;28.74;43.63;100424.69;1760823;81;20931;-43
2022/08/22 10:04:25;;;;;;;82.65;9.80;;;;;;;29.01;44.27;100425.17;1760786;81;21496;-44
2022/08/22 10:07:15;;;;;;;77.42;9.00;;;;;;;29.17;42.15;100428.50;1760797;81;20994;-43
2022/08/22 10:09:54;;;;;;;96.67;9.30;;;;;;;29.17;44.66;100431.16;1760549;81;20971;-44
2022/08/22 10:12:29;;;;;;;74.82;9.50;;;;;;;29.25;44.21;100429.94;1760699;80;21049;-44
2022/08/22 10:15:05;;;;;;;;;;;;;;;29.39;41.99;100427.23;1763646;81;20939;-44
2022/08/22 10:17:39;;;;;;;72.72;8.35;;;;;;;29.34;42.54;100425.52;1761037;81;21871;-43
2022/08/22 10:20:24;;;;;;;87.37;8.75;;;;;;;29.31;42.02;100430.31;1761045;81;20994;-44
2022/08/22 10:23:32;;;;;;;94.20;10.33;;;;;;;29.33;43.24;100432.33;1761123;81;20982;-44
2022/08/22 10:26:23;;;;;;;71.57;9.68;;;;;;;29.39;43.86;100426.38;1761028;81;21153;-44
2022/08/22 10:29:27;;;;;;;97.65;11.15;;;;;;;29.50;42.21;100422.20;1761046;81;21496;-45
2022/08/22 10:32:01;;;;;;;86.35;11.25;;;;;;;29.46;43.70;100433.31;1756310;81;21972;-45
2022/08/22 10:34:35;;;;;;;95.77;9.08;;;;;;;29.50;43.03;100427.53;1754670;80;20976;-44
2022/08/22 10:37:19;;;;;;;72.03;8.33;;;;;;;29.58;41.76;100433.91;1754975;81;21067;-43
2022/08/22 10:39:50;;;;;;;70.47;7.83;;;;;;;29.43;41.16;100431.80;1754651;81;20947;-44
2022/08/22 10:42:41;;;;;;;91.20;9.40;;;;;;;29.39;43.21;100429.05;1755129;81;20978;-44
2022/08/22 10:45:34;;;;;;;77.80;8.50;;;;;;;29.59;41.27;100436.44;1754714;81;21058;-44
2022/08/22 10:48:12;;;;;;;74.90;8.48;;;;;;;29.84;43.49;100435.30;1754385;81;20947;-43
2022/08/22 10:51:09;;;;;;;83.90;8.20;;;;;;;30.02;40.96;100432.63;1755079;81;21493;-44
2022/08/22 10:54:00;;;;;;;78.72;8.50;;;;;;;29.96;41.28;100435.89;1753711;81;21555;-44
2022/08/22 10:56:33;;;;;;;78.35;7.37;;;;;;;30.00;40.38;100431.91;1748643;80;21062;-45
2022/08/22 10:59:24;;;;;;;86.82;8.53;;;;;;;29.82;40.57;100429.29;1754936;81;21140;-45
2022/08/22 11:02:17;;;;;;;81.87;7.95;;;;;;;29.74;40.25;100422.06;1754833;81;20955;-43
2022/08/22 11:05:17;;;;;;;81.75;7.15;;;;;;;29.70;41.31;100426.03;1754620;81;21019;-43
2022/08/22 11:08:03;;;;;;;71.28;8.13;;;;;;;29.70;40.90;100430.03;1754651;81;20916;-44
2022/08/22 11:11:00;;;;;;;73.92;7.20;;;;;;;29.73;41.06;100423.53;1754426;81;21022;-44
2022/08/22 11:14:06;;;;;;;79.55;7.53;;;;;;;29.80;40.92;100419.25;1754873;81;21155;-43
2022/08/22 11:16:51;;;;;;;84.07;8.15;;;;;;;29.67;42.79;100424.98;1754894;81;21042;-43
2022/08/22 11:19:39;;;;;;;83.73;8.67;;;;;;;29.71;41.68;100419.70;1735907;81;20966;-44
2022/08/22 11:22:32;;;;;;;96.55;7.72;;;;;;;29.65;41.77;100429.16;1754947;81;20978;-43
2022/08/22 11:25:29;;;;;;;89.83;11.33;;;;;;;29.77;40.87;100427.56;1754931;81;20990;-44
2022/08/22 11:28:34;;;;;;;72.53;7.87;;;;;;;29.93;42.79;100420.17;1754858;81;21144;-44
2022/08/22 11:31:23;;;;;;;78.52;8.15;;;;;;;29.95;41.15;100422.22;1755915;80;21022;-44
2022/08/22 11:34:22;;;;;;;70.35;7.08;;;;;;;29.84;43.88;100423.30;1763316;81;20942;-43
2022/08/22 11:36:55;;;;;;;78.15;8.30;;;;;;;29.91;42.39;100426.16;1757192;81;20954;-43
2022/08/22 11:39:45;;;;;;;77.12;8.35;;;;;;;30.09;43.12;100421.66;1736208;81;21014;-44
2022/08/22 11:42:29;;;;;;;67.97;7.85;;;;;;;30.27;42.49;100427.92;1763433;81;21243;-43
2022/08/22 11:44:59;;;;;;;77.53;7.23;;;;;;;30.47;43.27;100421.87;1763514;81;20982;-43
2022/08/22 11:47:30;;;;;;;81.12;8.10;;;;;;;30.61;42.86;100427.95;1763425;81;21006;-44
2022/08/22 11:50:21;;;;;;;70.95;9.30;;;;;;;30.76;41.37;100430.84;1763314;81;21504;-43
2022/08/22 11:53:20;;;;;;;91.82;7.58;;;;;;;30.83;42.99;100431.04;1763556;81;21026;-44
2022/08/22 11:56:24;;;;;;;73.95;7.90;;;;;;;30.96;41.51;100423.41;1763495;81;21252;-44
2022/08/22 11:59:02;;;;;;;75.92;9.68;;;;;;;30.96;41.89;100434.10;1763307;81;20986;-44
2022/08/22 12:01:43;;;;;;;89.52;8.25;;;;;;;30.89;40.53;100427.72;1763111;81;21469;-44
2022/08/22 12:04:20;;;;;;;97.35;9.85;;;;;;;30.79;41.97;100430.52;1763267;81;20986;-44
2022/08/22 12:07:01;;;;;;;90.55;8.75;;;;;;;30.82;40.17;100430.70;1763238;81;20915;-44
2022/08/22 12:09:50;;;;;;;84.32;8.63;;;;;;;30.79;41.85;100428.36;1731935;81;21440;-43
2022/08/22 12:12:51;;;;;;;78.97;7.97;;;;;;;30.92;41.89;100431.91;1763397;81;20989;-44
2022/08/22 12:15:26;;;;;;;76.35;7.42;;;;;;;31.04;41.63;100427.09;1763390;81;20943;-44
2022/08/22 12:18:26;;;;;;;78.47;7.60;;;;;;;31.17;41.03;100433.30;1763490;81;20907;-44
2022/08/22 12:21:23;;;;;;;70.22;8.58;;;;;;;31.22;42.18;100429.17;1763390;81;20943;-44
2022/08/22 12:24:24;;;;;;;59.65;6.62;;;;;;;31.44;41.31;100430.84;1747480;81;22855;-44
2022/08/22 12:27:14;;;;;;;62.85;7.28;;;;;;;31.45;39.89;100426.34;1763385;81;21017;-44
2022/08/22 12:30:08;;;;;;;73.72;7.22;;;;;;;31.47;39.71;100428.34;1763345;81;21551;-44
2022/08/22 12:33:09;;;;;;;69.80;6.92;;;;;;;31.36;39.44;100422.83;1756921;81;20998;-44
2022/08/22 12:36:18;;;;;;;54.03;6.40;;;;;;;31.35;41.62;100430.52;1754745;81;20991;-44
2022/08/22 12:39:32;;;;;;;56.53;6.50;;;;;;;31.40;41.26;100429.50;1743041;81;21872;-43
2022/08/22 12:42:13;;;;;;;57.35;5.97;;;;;;;31.41;40.27;100430.36;1754632;80;20951;-43
2022/08/22 12:44:46;;;;;;;59.23;7.03;;;;;;;31.32;41.88;100426.32;1754562;81;20932;-43